createdAt,value
2023-01-21T08:29:19.703Z,23.17
2023-01-21T08:35:30.669Z,24.55
2023-01-21T08:47:02.851Z,21.48
2023-01-21T08:53:11.920Z,21.15
2023-01-21T08:59:27.211Z,17.13
2023-01-21T09:05:34.498Z,25.73
2023-01-21T09:11:43.157Z,22.20
2023-01-21T09:17:50.862Z,20.23
2023-01-21T09:23:58.412Z,17.27
2023-01-21T09:29:54.898Z,22.90
2023-01-21T09:36:07.604Z,19.42
2023-01-21T09:42:25.229Z,19.17
2023-01-21T09:48:47.661Z,19.77
2023-01-21T09:54:57.576Z,21.70
2023-01-21T10:01:27.739Z,18.92
2023-01-21T10:05:06.670Z,14.13
2023-01-21T10:08:00.132Z,19.73
2023-01-21T10:10:37.640Z,21.13
2023-01-21T10:14:14.293Z,17.85
2023-01-21T10:17:43.024Z,16.88
2023-01-21T10:20:34.317Z,17.73
2023-01-21T10:23:43.543Z,18.25
2023-01-21T10:26:17.241Z,18.92
2023-01-21T10:28:54.069Z,18.95
2023-01-21T10:31:39.219Z,19.40
2023-01-21T10:34:19.470Z,16.65
2023-01-21T10:37:11.363Z,14.60
2023-01-21T10:40:17.384Z,17.88
2023-01-21T10:43:07.070Z,20.00
2023-01-21T10:46:31.394Z,18.43
2023-01-21T10:50:24.260Z,19.65
2023-01-21T10:53:44.267Z,22.23
2023-01-21T10:57:06.505Z,17.77
2023-01-21T10:59:38.148Z,13.63
2023-01-21T11:02:30.267Z,13.48
2023-01-21T11:05:11.367Z,16.60
2023-01-21T11:07:42.437Z,13.65
2023-01-21T11:10:19.354Z,16.25
2023-01-21T11:12:48.003Z,15.75
2023-01-21T11:15:20.430Z,14.43
2023-01-21T11:17:59.636Z,13.38
2023-01-21T11:20:41.691Z,9.45
2023-01-21T11:23:32.060Z,10.82
2023-01-21T11:26:21.211Z,13.48
2023-01-21T11:28:48.596Z,8.05
2023-01-21T11:31:27.397Z,10.52
2023-01-21T11:34:03.317Z,10.43
2023-01-21T11:36:31.045Z,6.93
2023-01-21T11:39:14.225Z,8.45
2023-01-21T11:41:57.958Z,6.47
2023-01-21T11:44:25.946Z,6.65
2023-01-21T11:46:53.569Z,6.00
2023-01-21T11:49:31.452Z,4.80
2023-01-21T11:52:20.070Z,7.07
2023-01-21T11:54:48.476Z,7.00
2023-01-21T11:57:32.846Z,5.15
2023-01-21T12:00:20.084Z,6.60
2023-01-21T12:03:00.644Z,6.72
2023-01-21T12:05:40.836Z,4.28
2023-01-21T12:08:21.705Z,5.07
2023-01-21T12:10:51.292Z,5.63
2023-01-21T12:13:40.648Z,7.95
2023-01-21T12:16:49.512Z,6.05
2023-01-21T12:19:45.595Z,6.30
2023-01-21T12:23:36.277Z,10.23
2023-01-21T12:26:48.047Z,8.02
2023-01-21T12:30:11.980Z,9.25
2023-01-21T12:32:51.579Z,6.28
2023-01-21T12:35:56.028Z,7.55
2023-01-21T12:38:34.829Z,10.02
2023-01-21T12:41:26.444Z,9.30
2023-01-21T12:44:50.471Z,9.05
2023-01-21T12:47:44.012Z,8.27
2023-01-21T12:50:36.018Z,6.85
2023-01-21T12:53:50.511Z,8.35
2023-01-21T12:56:50.660Z,11.48
2023-01-21T12:59:42.553Z,9.63
2023-01-21T13:02:35.680Z,12.45
2023-01-21T13:06:18.103Z,10.25
2023-01-21T13:09:19.519Z,9.85
2023-01-21T13:11:58.128Z,13.95
2023-01-21T13:15:04.113Z,13.55
2023-01-21T13:17:38.312Z,16.00
2023-01-21T13:20:22.702Z,12.55
2023-01-21T13:24:01.487Z,14.10
2023-01-21T13:27:22.643Z,14.65
2023-01-21T13:30:10.674Z,12.65
2023-01-21T13:32:52.690Z,15.07
2023-01-21T13:35:55.496Z,14.20
2023-01-21T13:38:49.984Z,18.88
2023-01-21T13:42:22.513Z,14.65
2023-01-21T13:45:42.996Z,16.83
2023-01-21T13:48:44.923Z,15.77
2023-01-21T13:52:01.461Z,16.95
2023-01-21T13:54:52.880Z,18.23
2023-01-21T13:58:30.349Z,15.68
2023-01-21T14:01:26.205Z,15.98
2023-01-21T14:04:15.596Z,23.95
2023-01-21T14:06:57.588Z,25.50
2023-01-21T14:09:49.694Z,21.95
2023-01-21T14:13:29.273Z,18.67
2023-01-21T14:16:36.131Z,16.98
2023-01-21T14:19:44.759Z,17.80
2023-01-21T14:24:02.869Z,17.02
2023-01-21T14:27:25.255Z,18.25
2023-01-21T14:30:24.473Z,16.35
2023-01-21T14:33:06.932Z,15.55
2023-01-21T14:36:15.523Z,16.77
2023-01-21T14:39:19.931Z,16.15
2023-01-21T14:42:17.609Z,15.90
2023-01-21T14:45:08.311Z,18.55
2023-01-21T14:50:03.066Z,16.70
2023-01-21T14:52:45.748Z,19.90
2023-01-21T14:55:32.979Z,17.60
2023-01-21T14:58:01.850Z,18.27
2023-01-21T15:00:34.820Z,22.80
2023-01-21T15:03:28.435Z,18.60
2023-01-21T15:06:08.003Z,17.98
2023-01-21T15:08:46.383Z,18.77
2023-01-21T15:11:41.113Z,21.55
2023-01-21T15:14:33.400Z,18.67
2023-01-21T15:17:01.064Z,18.90
2023-01-21T15:19:37.460Z,21.67
2023-01-21T15:22:37.681Z,24.20
2023-01-21T15:25:31.777Z,17.27
2023-01-21T15:28:57.654Z,19.23
2023-01-21T15:31:45.125Z,18.33
2023-01-21T15:34:18.421Z,17.48
2023-01-21T15:36:57.321Z,21.38
2023-01-21T15:39:34.512Z,19.52
2023-01-21T15:42:44.343Z,20.27
2023-01-21T15:45:41.070Z,19.10
2023-01-21T15:48:42.728Z,18.17
2023-01-21T15:51:31.549Z,19.05
2023-01-21T15:54:49.058Z,16.80
2023-01-21T15:58:06.275Z,19.58
2023-01-21T16:01:01.838Z,22.25
2023-01-21T16:04:12.532Z,19.60
2023-01-21T16:07:32.826Z,18.73
2023-01-21T16:10:45.189Z,19.77
2023-01-21T16:13:49.688Z,22.20
2023-01-21T16:16:47.209Z,19.25
2023-01-21T16:19:35.054Z,24.23
2023-01-21T16:22:07.664Z,20.60
2023-01-21T16:24:48.557Z,22.40
2023-01-21T16:27:24.841Z,22.67
2023-01-21T16:30:35.220Z,19.20
2023-01-21T16:33:15.359Z,20.10
2023-01-21T16:36:01.023Z,21.25
2023-01-21T16:38:32.557Z,18.65
2023-01-21T16:41:08.567Z,21.30
2023-01-21T16:43:58.535Z,21.58
2023-01-21T16:46:40.299Z,20.15
2023-01-21T16:49:17.103Z,23.73
2023-01-21T16:52:01.884Z,23.90
2023-01-21T16:54:33.349Z,22.50
2023-01-21T16:57:25.731Z,24.23
2023-01-21T16:59:55.841Z,20.80
2023-01-21T17:02:32.147Z,20.83
2023-01-21T17:05:05.152Z,25.00
2023-01-21T17:07:46.918Z,24.80
2023-01-21T17:10:29.539Z,22.60
2023-01-21T17:13:04.688Z,24.75
2023-01-21T17:16:09.444Z,25.88
2023-01-21T17:18:52.118Z,25.40
2023-01-21T17:21:44.223Z,28.95
2023-01-21T17:24:38.521Z,27.30
2023-01-21T17:27:18.179Z,24.25
2023-01-21T17:29:45.593Z,23.48
2023-01-21T17:32:33.547Z,26.70
2023-01-21T17:35:16.111Z,25.55
